createdAt,value
2022-08-25T00:02:08.101Z,14.93
2022-08-25T00:04:38.210Z,14.37
2022-08-25T00:07:07.815Z,14.87
2022-08-25T00:09:36.111Z,15.23
2022-08-25T00:12:04.795Z,12.73
2022-08-25T00:14:33.935Z,16.00
2022-08-25T00:17:03.589Z,15.93
2022-08-25T00:19:33.201Z,14.77
2022-08-25T00:22:01.819Z,17.07
2022-08-25T00:24:30.021Z,15.00
2022-08-25T00:26:58.756Z,14.67
2022-08-25T00:29:27.819Z,15.73
2022-08-25T00:31:56.546Z,16.00
2022-08-25T00:34:27.303Z,16.70
2022-08-25T00:36:55.541Z,14.50
2022-08-25T00:39:23.844Z,15.97
2022-08-25T00:41:52.434Z,15.90
2022-08-25T00:44:20.610Z,15.40
2022-08-25T00:46:50.754Z,16.23
2022-08-25T00:49:25.391Z,17.13
2022-08-25T00:51:57.007Z,14.43
2022-08-25T00:54:26.299Z,14.60
2022-08-25T00:56:54.415Z,15.00
2022-08-25T00:59:22.587Z,16.03
2022-08-25T01:01:51.417Z,18.37
2022-08-25T01:04:19.669Z,17.97
2022-08-25T01:06:47.799Z,16.07
2022-08-25T01:09:17.526Z,14.17
2022-08-25T01:11:45.735Z,14.27
2022-08-25T01:14:14.216Z,13.63
2022-08-25T01:16:43.849Z,14.47
2022-08-25T01:19:15.455Z,17.57
2022-08-25T01:21:46.811Z,15.20
2022-08-25T01:24:19.906Z,15.53
2022-08-25T01:26:48.019Z,13.50
2022-08-25T01:29:22.307Z,14.20
2022-08-25T01:31:50.483Z,16.00
2022-08-25T01:34:19.015Z,13.43
2022-08-25T01:36:48.569Z,15.37
2022-08-25T01:39:16.670Z,14.30
2022-08-25T01:41:51.616Z,13.10
2022-08-25T01:44:19.784Z,15.00
2022-08-25T01:46:47.924Z,14.70
2022-08-25T01:49:16.015Z,13.90
2022-08-25T01:51:46.177Z,14.53
2022-08-25T01:54:15.694Z,15.00
2022-08-25T01:56:44.221Z,15.77
2022-08-25T01:59:12.341Z,16.30
2022-08-25T02:01:42.293Z,19.30
2022-08-25T02:04:10.663Z,14.67
2022-08-25T02:06:39.863Z,14.63
2022-08-25T02:09:10.270Z,14.23
2022-08-25T02:11:42.105Z,13.43
2022-08-25T02:14:11.716Z,14.00
2022-08-25T02:16:40.452Z,14.03
2022-08-25T02:19:11.314Z,14.67
2022-08-25T02:21:39.454Z,13.87
2022-08-25T02:24:08.181Z,16.43
2022-08-25T02:26:36.515Z,15.93
2022-08-25T02:29:06.764Z,13.60
2022-08-25T02:31:34.910Z,14.67
2022-08-25T02:34:03.186Z,16.50
2022-08-25T02:36:32.248Z,14.07
2022-08-25T02:39:00.551Z,13.40
2022-08-25T02:41:31.615Z,15.90
2022-08-25T02:44:00.184Z,14.33
2022-08-25T02:46:29.850Z,15.63
2022-08-25T02:48:57.987Z,15.30
2022-08-25T02:51:27.547Z,15.33
2022-08-25T02:53:56.336Z,14.63
2022-08-25T02:56:24.700Z,14.80
2022-08-25T02:58:52.916Z,14.07
2022-08-25T03:01:22.115Z,13.27
2022-08-25T03:03:58.476Z,14.50
2022-08-25T03:06:28.062Z,16.67
2022-08-25T03:08:56.263Z,14.20
2022-08-25T03:11:26.595Z,17.67
2022-08-25T03:13:54.787Z,16.20
2022-08-25T03:16:22.993Z,15.13
2022-08-25T03:18:56.259Z,15.27
2022-08-25T03:21:26.965Z,16.10
2022-08-25T03:23:55.122Z,17.77
2022-08-25T03:26:41.022Z,15.00
2022-08-25T03:29:09.189Z,14.73
2022-08-25T03:31:37.405Z,15.23
2022-08-25T03:34:05.876Z,15.10
2022-08-25T03:36:35.389Z,14.73
2022-08-25T03:39:03.495Z,16.17
2022-08-25T03:41:32.658Z,14.80
2022-08-25T03:44:00.877Z,15.77
2022-08-25T03:46:30.254Z,15.77
2022-08-25T03:48:58.363Z,15.60
2022-08-25T03:51:28.717Z,14.30
2022-08-25T03:53:58.310Z,14.13
2022-08-25T03:56:27.415Z,15.43
2022-08-25T03:58:55.803Z,16.10
2022-08-25T04:01:24.140Z,15.43
2022-08-25T04:03:52.283Z,14.60
2022-08-25T04:06:20.619Z,16.73
2022-08-25T04:08:48.726Z,16.97
2022-08-25T04:11:19.598Z,17.47
2022-08-25T04:13:48.112Z,20.60
2022-08-25T04:16:18.660Z,17.60
2022-08-25T04:18:47.660Z,18.87
2022-08-25T04:21:15.778Z,18.73
2022-08-25T04:23:44.778Z,21.47
2022-08-25T04:26:13.588Z,16.97
2022-08-25T04:28:43.014Z,16.20
2022-08-25T04:31:11.898Z,16.47
2022-08-25T04:33:40.186Z,16.70
2022-08-25T04:36:12.233Z,16.37
2022-08-25T04:38:40.668Z,17.03
2022-08-25T04:41:09.272Z,17.87
2022-08-25T04:43:39.368Z,17.87
2022-08-25T04:46:09.137Z,20.17
2022-08-25T04:48:37.333Z,16.57
2022-08-25T04:51:06.401Z,18.57
2022-08-25T04:53:34.779Z,16.30
2022-08-25T04:56:03.932Z,17.23
2022-08-25T04:58:32.115Z,17.20
2022-08-25T05:01:03.276Z,16.33
2022-08-25T05:03:32.815Z,16.50
2022-08-25T05:06:01.387Z,16.23
2022-08-25T05:08:29.468Z,15.73
2022-08-25T05:10:57.581Z,18.03
2022-08-25T05:13:26.828Z,17.10
2022-08-25T05:15:55.608Z,17.77
2022-08-25T05:18:24.369Z,20.13
2022-08-25T05:20:54.985Z,18.53
2022-08-25T05:23:23.305Z,20.27
2022-08-25T05:25:51.596Z,19.87
2022-08-25T05:28:19.826Z,19.93
2022-08-25T05:30:48.744Z,22.50
2022-08-25T05:33:17.319Z,19.80
2022-08-25T05:35:45.441Z,20.00
2022-08-25T05:38:15.301Z,22.43
2022-08-25T05:40:43.806Z,20.53
2022-08-25T05:43:12.388Z,21.13
2022-08-25T05:45:40.939Z,20.67
2022-08-25T05:48:09.166Z,19.63
2022-08-25T05:50:37.899Z,21.23
2022-08-25T05:53:06.780Z,21.67
2022-08-25T05:55:37.216Z,19.37
2022-08-25T05:58:06.706Z,21.50
2022-08-25T06:00:38.828Z,22.17
2022-08-25T06:03:05.937Z,20.57
2022-08-25T06:05:34.039Z,21.60
2022-08-25T06:08:02.203Z,21.83
2022-08-25T06:10:30.385Z,22.07
2022-08-25T06:13:00.206Z,22.30
2022-08-25T06:15:28.343Z,21.57
2022-08-25T06:18:01.733Z,21.50
2022-08-25T06:20:33.110Z,22.53
2022-08-25T06:23:01.394Z,21.37
2022-08-25T06:25:32.742Z,19.03
2022-08-25T06:28:02.540Z,18.20
2022-08-25T06:30:31.259Z,18.07
2022-08-25T06:32:59.355Z,19.23
2022-08-25T06:35:28.150Z,17.70
2022-08-25T06:37:56.285Z,17.70
2022-08-25T06:40:26.096Z,19.83
2022-08-25T06:42:54.317Z,24.13
2022-08-25T06:45:23.799Z,20.60
2022-08-25T06:47:52.873Z,22.13
2022-08-25T06:50:21.618Z,20.43
2022-08-25T06:52:49.681Z,20.43
2022-08-25T06:55:18.261Z,19.33
2022-08-25T06:57:46.837Z,16.53
2022-08-25T07:00:15.281Z,18.27
2022-08-25T07:02:44.758Z,21.10
2022-08-25T07:05:17.143Z,16.60
2022-08-25T07:07:55.202Z,13.53
2022-08-25T07:10:23.831Z,16.63
2022-08-25T07:12:52.006Z,12.37
2022-08-25T07:15:21.024Z,17.87
2022-08-25T07:17:51.098Z,13.93
2022-08-25T07:20:19.705Z,16.87
2022-08-25T07:22:48.179Z,12.43
2022-08-25T07:25:17.768Z,12.37
2022-08-25T07:27:46.100Z,11.50
2022-08-25T07:30:14.330Z,9.80
2022-08-25T07:32:43.272Z,10.17
2022-08-25T07:35:19.576Z,14.60
2022-08-25T07:37:49.811Z,11.17
2022-08-25T07:40:19.857Z,13.47
2022-08-25T07:42:48.207Z,13.83
2022-08-25T07:45:20.410Z,14.73
2022-08-25T07:47:51.621Z,14.70
2022-08-25T07:50:21.659Z,13.40
2022-08-25T07:52:55.284Z,13.93
2022-08-25T07:55:24.164Z,13.67
2022-08-25T07:57:55.405Z,14.30
2022-08-25T08:00:27.703Z,13.90
2022-08-25T08:02:56.455Z,13.37
2022-08-25T08:05:26.268Z,13.40
2022-08-25T08:07:54.379Z,14.77
2022-08-25T08:10:48.171Z,12.10
2022-08-25T08:13:13.413Z,10.93
2022-08-25T08:15:46.332Z,12.30
2022-08-25T08:18:14.484Z,11.17
2022-08-25T08:20:46.657Z,12.90
2022-08-25T08:23:14.761Z,12.13
2022-08-25T08:25:42.903Z,10.60
2022-08-25T08:28:11.075Z,11.77
2022-08-25T08:30:39.522Z,10.77
2022-08-25T08:33:21.515Z,12.17
2022-08-25T08:35:57.212Z,12.17
2022-08-25T08:38:27.404Z,15.80
2022-08-25T08:41:23.238Z,21.33
2022-08-25T08:43:54.371Z,9.23
2022-08-25T08:46:22.871Z,12.60
2022-08-25T08:48:59.882Z,13.27
2022-08-25T08:51:33.158Z,10.63
2022-08-25T08:54:03.791Z,11.13
2022-08-25T08:56:36.414Z,13.57
2022-08-25T08:59:06.707Z,11.60
2022-08-25T09:01:35.770Z,12.43
2022-08-25T09:04:06.488Z,13.57
2022-08-25T09:06:39.225Z,11.20
2022-08-25T09:09:07.303Z,10.93
2022-08-25T09:11:47.507Z,10.43
2022-08-25T09:14:23.382Z,10.70
2022-08-25T09:17:02.362Z,9.63
2022-08-25T09:19:43.227Z,8.87
2022-08-25T09:22:34.024Z,9.10
2022-08-25T09:25:08.928Z,8.60
2022-08-25T09:27:41.738Z,9.03
2022-08-25T09:30:11.533Z,8.97
2022-08-25T09:32:50.402Z,7.93
2022-08-25T09:35:22.156Z,9.27
2022-08-25T09:38:01.983Z,7.73
2022-08-25T09:40:31.121Z,8.20
2022-08-25T09:43:01.188Z,8.07
2022-08-25T09:45:42.610Z,10.53
2022-08-25T09:48:24.810Z,8.90
2022-08-25T09:50:53.179Z,12.13
2022-08-25T09:53:23.191Z,7.57
2022-08-25T09:55:59.790Z,8.47
2022-08-25T09:58:28.791Z,11.50
2022-08-25T10:01:14.522Z,8.77
2022-08-25T10:03:59.911Z,9.23
2022-08-25T10:06:29.683Z,7.73
2022-08-25T10:09:01.010Z,10.33
2022-08-25T10:11:34.797Z,9.23
2022-08-25T10:14:04.776Z,9.67
2022-08-25T10:16:36.165Z,10.60
2022-08-25T10:19:10.030Z,9.63
2022-08-25T10:21:39.095Z,10.53
2022-08-25T10:24:08.839Z,8.70
2022-08-25T10:26:48.811Z,13.73
2022-08-25T10:29:26.797Z,7.87
2022-08-25T10:31:57.815Z,11.47
2022-08-25T10:34:35.812Z,10.73
2022-08-25T10:37:09.561Z,13.23
2022-08-25T10:39:42.277Z,9.57
2022-08-25T10:42:27.211Z,11.33
2022-08-25T10:45:22.285Z,11.97
2022-08-25T10:48:00.559Z,12.53
2022-08-25T10:50:30.528Z,12.07
2022-08-25T10:53:19.419Z,14.83
2022-08-25T10:55:54.478Z,14.17
2022-08-25T10:58:25.793Z,12.10
2022-08-25T11:01:02.918Z,12.50
2022-08-25T11:03:44.631Z,14.30
2022-08-25T11:06:15.285Z,14.47
2022-08-25T11:08:44.989Z,15.90
2022-08-25T11:11:21.825Z,15.23
2022-08-25T11:13:52.976Z,16.03
2022-08-25T11:16:50.154Z,15.30
2022-08-25T11:19:24.089Z,16.00
2022-08-25T11:21:55.210Z,19.73
2022-08-25T11:24:38.265Z,14.80
2022-08-25T11:27:13.770Z,16.87
2022-08-25T11:29:41.957Z,22.30
2022-08-25T11:32:10.205Z,24.13
2022-08-25T11:34:43.733Z,18.73
2022-08-25T11:37:15.872Z,19.33
2022-08-25T11:40:17.363Z,17.07
2022-08-25T11:43:08.080Z,19.80
2022-08-25T11:45:55.084Z,23.00
2022-08-25T11:48:30.725Z,21.30
2022-08-25T11:51:01.678Z,19.10
2022-08-25T11:53:30.767Z,15.93
2022-08-25T11:56:02.568Z,20.63
2022-08-25T11:58:46.453Z,20.83
2022-08-25T12:01:47.612Z,18.80
2022-08-25T12:04:17.378Z,20.07
2022-08-25T12:07:17.948Z,18.53
2022-08-25T12:10:22.734Z,17.47
2022-08-25T12:13:01.885Z,15.03
2022-08-25T12:15:51.004Z,15.93
2022-08-25T12:18:46.099Z,28.43
2022-08-25T12:21:16.508Z,19.03
2022-08-25T12:23:45.508Z,14.23
2022-08-25T12:26:22.078Z,17.77
2022-08-25T12:29:07.567Z,17.23
2022-08-25T12:32:13.613Z,16.13
2022-08-25T12:34:56.073Z,18.80
2022-08-25T12:37:24.992Z,12.60
2022-08-25T12:39:59.320Z,24.07
2022-08-25T12:42:31.367Z,23.57
2022-08-25T12:45:37.359Z,20.90
2022-08-25T12:48:43.825Z,15.53
2022-08-25T12:51:17.694Z,15.87
2022-08-25T12:53:48.129Z,17.53
2022-08-25T12:56:24.128Z,13.40
2022-08-25T12:59:01.022Z,19.50
2022-08-25T13:01:36.308Z,16.67
2022-08-25T13:04:31.964Z,15.63
2022-08-25T13:07:06.787Z,16.70
2022-08-25T13:10:05.517Z,9.37
2022-08-25T13:12:35.431Z,15.50
2022-08-25T13:15:03.856Z,12.07
2022-08-25T13:17:34.326Z,10.87
2022-08-25T13:20:18.307Z,10.17
2022-08-25T13:22:48.671Z,13.77
2022-08-25T13:25:18.326Z,19.00
2022-08-25T13:27:52.593Z,12.23
2022-08-25T13:30:24.907Z,13.03
2022-08-25T13:32:53.011Z,16.10
2022-08-25T13:35:26.536Z,12.30
2022-08-25T13:38:16.953Z,14.57
2022-08-25T13:40:45.125Z,19.17
2022-08-25T13:43:14.948Z,15.67
2022-08-25T13:45:44.894Z,14.47
2022-08-25T13:48:20.944Z,16.00
2022-08-25T13:50:52.996Z,18.43
2022-08-25T13:53:23.873Z,18.13
2022-08-25T13:55:53.311Z,16.03
2022-08-25T13:58:24.919Z,21.27
2022-08-25T14:01:22.214Z,15.37
2022-08-25T14:04:22.488Z,18.43
2022-08-25T14:07:19.508Z,15.03
2022-08-25T14:09:50.206Z,16.47
2022-08-25T14:12:29.688Z,15.00
2022-08-25T14:15:02.974Z,14.30
2022-08-25T14:17:39.851Z,20.17
2022-08-25T14:20:17.423Z,13.00
2022-08-25T14:22:46.993Z,12.80
2022-08-25T14:25:15.077Z,15.17
2022-08-25T14:28:06.732Z,18.20
2022-08-25T14:30:34.409Z,15.37
2022-08-25T14:33:02.511Z,11.50
2022-08-25T14:35:30.690Z,14.90
2022-08-25T14:38:09.987Z,14.17
2022-08-25T14:40:39.134Z,14.23
2022-08-25T14:43:09.576Z,18.23
2022-08-25T14:45:38.729Z,15.77
2022-08-25T14:48:10.874Z,13.50
2022-08-25T14:50:41.905Z,14.63
2022-08-25T14:53:12.313Z,15.40
2022-08-25T14:55:40.349Z,18.70
2022-08-25T14:58:08.941Z,18.53
2022-08-25T15:00:38.775Z,12.73
2022-08-25T15:03:07.052Z,15.03
2022-08-25T15:05:35.283Z,18.07
2022-08-25T15:08:21.128Z,15.13
2022-08-25T15:10:50.800Z,15.07
2022-08-25T15:13:19.361Z,19.07
2022-08-25T15:15:52.450Z,24.90
2022-08-25T15:18:21.632Z,18.17
2022-08-25T15:20:50.313Z,9.67
2022-08-25T15:23:26.367Z,21.23
2022-08-25T15:26:07.189Z,21.47
2022-08-25T15:28:39.076Z,22.77
2022-08-25T15:31:07.318Z,17.33
2022-08-25T15:33:36.478Z,13.00
2022-08-25T15:36:05.023Z,20.10
2022-08-25T15:38:33.208Z,16.53
2022-08-25T15:41:03.137Z,12.93
2022-08-25T15:43:31.312Z,15.77
2022-08-25T15:45:59.622Z,17.07
2022-08-25T15:48:27.968Z,17.47
2022-08-25T15:50:56.889Z,16.37
2022-08-25T15:53:26.165Z,18.10
2022-08-25T15:55:57.584Z,22.03
2022-08-25T15:58:30.289Z,18.33
2022-08-25T16:00:58.580Z,15.70
2022-08-25T16:03:28.160Z,23.57
2022-08-25T16:05:56.882Z,20.73
2022-08-25T16:08:24.970Z,13.73
2022-08-25T16:10:59.364Z,18.40
2022-08-25T16:13:29.244Z,17.90
2022-08-25T16:16:01.002Z,14.53
2022-08-25T16:18:30.108Z,23.97
2022-08-25T16:20:59.677Z,26.23
2022-08-25T16:23:28.368Z,19.83
2022-08-25T16:25:56.541Z,19.70
2022-08-25T16:28:25.914Z,21.30
2022-08-25T16:30:56.123Z,18.20
2022-08-25T16:33:24.378Z,24.47
2022-08-25T16:35:54.107Z,21.77
2022-08-25T16:38:26.673Z,17.97
2022-08-25T16:40:56.986Z,22.80
2022-08-25T16:43:25.639Z,17.40
2022-08-25T16:46:00.291Z,19.13
2022-08-25T16:48:29.472Z,16.87
2022-08-25T16:50:58.066Z,23.80
2022-08-25T16:53:43.801Z,22.93
2022-08-25T16:56:19.138Z,24.67
2022-08-25T16:58:47.343Z,24.27
2022-08-25T17:01:22.848Z,25.07
2022-08-25T17:03:52.382Z,26.60
2022-08-25T17:06:20.661Z,21.67
2022-08-25T17:08:50.895Z,31.70
2022-08-25T17:11:20.328Z,22.67
2022-08-25T17:13:50.122Z,17.00
2022-08-25T17:16:18.456Z,24.73
2022-08-25T17:18:49.993Z,18.63
2022-08-25T17:21:23.796Z,20.77
2022-08-25T17:23:53.073Z,19.00
2022-08-25T17:26:27.896Z,20.50
2022-08-25T17:28:57.284Z,23.40
2022-08-25T17:31:27.656Z,20.93
2022-08-25T17:33:57.982Z,24.33
2022-08-25T17:36:27.187Z,22.43
2022-08-25T17:38:56.780Z,20.87
2022-08-25T17:41:25.367Z,29.73
2022-08-25T17:43:53.674Z,18.67
2022-08-25T17:46:22.164Z,21.13
2022-08-25T17:48:50.265Z,21.30
2022-08-25T17:51:20.420Z,24.03
2022-08-25T17:53:49.713Z,25.67
2022-08-25T17:56:19.213Z,17.00
2022-08-25T17:58:48.287Z,22.70
2022-08-25T18:01:17.088Z,20.10
2022-08-25T18:03:45.233Z,20.50
2022-08-25T18:06:15.087Z,20.53
2022-08-25T18:08:52.287Z,20.00
2022-08-25T18:11:23.708Z,14.47
2022-08-25T18:13:53.797Z,15.17
2022-08-25T18:16:22.029Z,18.13
2022-08-25T18:18:50.209Z,26.13
2022-08-25T18:21:20.390Z,19.20
2022-08-25T18:23:49.997Z,15.70
2022-08-25T18:26:24.789Z,21.17
2022-08-25T18:28:53.791Z,21.30
2022-08-25T18:31:21.978Z,18.87
2022-08-25T18:33:51.004Z,20.03
2022-08-25T18:36:21.330Z,14.63
2022-08-25T18:39:08.769Z,20.37
2022-08-25T18:41:38.157Z,19.73
2022-08-25T18:44:06.575Z,20.70
2022-08-25T18:46:34.891Z,22.17
2022-08-25T18:49:04.575Z,15.63
2022-08-25T18:51:33.374Z,22.30
2022-08-25T18:54:03.500Z,15.73
2022-08-25T18:56:31.840Z,18.67
2022-08-25T18:59:01.031Z,18.00
2022-08-25T19:01:29.376Z,16.33
2022-08-25T19:03:57.664Z,26.00
2022-08-25T19:06:26.123Z,21.13
2022-08-25T19:08:54.556Z,17.67
2022-08-25T19:11:24.072Z,23.60
2022-08-25T19:13:52.509Z,16.90
2022-08-25T19:16:32.097Z,25.77
2022-08-25T19:19:02.524Z,19.67
2022-08-25T19:21:31.905Z,20.43
2022-08-25T19:24:01.034Z,21.03
2022-08-25T19:26:34.379Z,20.27
2022-08-25T19:29:02.558Z,19.03
2022-08-25T19:31:33.345Z,22.67
2022-08-25T19:34:02.144Z,26.50
2022-08-25T19:36:31.058Z,18.20
2022-08-25T19:39:01.218Z,21.83
2022-08-25T19:41:29.701Z,17.50
2022-08-25T19:44:00.364Z,15.37
2022-08-25T19:46:32.231Z,20.27
2022-08-25T19:49:06.869Z,13.33
2022-08-25T19:51:36.784Z,16.43
2022-08-25T19:54:05.681Z,19.00
2022-08-25T19:56:35.186Z,18.17
2022-08-25T19:59:06.346Z,17.17
2022-08-25T20:01:36.230Z,20.10
2022-08-25T20:04:05.195Z,20.00
2022-08-25T20:06:33.314Z,26.00
2022-08-25T20:09:01.570Z,18.33
2022-08-25T20:11:29.829Z,17.90
2022-08-25T20:14:03.124Z,16.63
2022-08-25T20:16:33.744Z,21.03
2022-08-25T20:19:02.035Z,25.93
2022-08-25T20:21:34.005Z,21.97
2022-08-25T20:24:24.493Z,24.17
2022-08-25T20:26:52.864Z,17.67
2022-08-25T20:29:21.396Z,20.80
2022-08-25T20:31:53.235Z,18.53
2022-08-25T20:34:21.483Z,18.97
2022-08-25T20:36:50.479Z,25.10
2022-08-25T20:39:20.253Z,20.53
2022-08-25T20:41:48.679Z,24.83
2022-08-25T20:44:17.333Z,26.40
2022-08-25T20:46:45.549Z,20.47
2022-08-25T20:49:15.620Z,11.63
2022-08-25T20:51:44.102Z,22.73
2022-08-25T20:54:14.199Z,21.03
2022-08-25T20:56:43.037Z,15.47
2022-08-25T20:59:11.657Z,15.97
2022-08-25T21:01:41.317Z,27.67
2022-08-25T21:04:11.167Z,20.20
2022-08-25T21:06:44.328Z,13.23
2022-08-25T21:09:16.118Z,21.50
2022-08-25T21:11:45.085Z,17.43
2022-08-25T21:14:13.719Z,21.10
2022-08-25T21:16:46.398Z,21.20
2022-08-25T21:19:16.032Z,15.83
2022-08-25T21:21:45.844Z,22.33
2022-08-25T21:24:14.827Z,18.57
2022-08-25T21:26:48.562Z,21.57
2022-08-25T21:29:17.275Z,25.57
2022-08-25T21:31:45.366Z,18.90
2022-08-25T21:34:13.695Z,21.83
2022-08-25T21:36:42.019Z,21.40
2022-08-25T21:39:11.567Z,16.27
2022-08-25T21:41:40.405Z,18.83
2022-08-25T21:44:08.534Z,22.03
2022-08-25T21:46:36.824Z,19.47
2022-08-25T21:49:06.113Z,24.80
2022-08-25T21:51:35.791Z,19.33
2022-08-25T21:54:12.366Z,19.43
2022-08-25T21:56:43.232Z,23.57
2022-08-25T21:59:12.815Z,16.20
2022-08-25T22:01:41.181Z,19.97
2022-08-25T22:04:11.334Z,20.27
2022-08-25T22:06:39.724Z,17.70
2022-08-25T22:09:08.682Z,18.40
2022-08-25T22:11:36.804Z,17.40
2022-08-25T22:14:07.080Z,25.07
2022-08-25T22:16:35.341Z,21.80
2022-08-25T22:19:03.803Z,22.83
2022-08-25T22:21:32.731Z,22.13
2022-08-25T22:24:00.835Z,17.07
2022-08-25T22:26:30.180Z,18.30
2022-08-25T22:28:59.143Z,12.97
2022-08-25T22:31:29.552Z,21.73
2022-08-25T22:33:58.560Z,21.47
2022-08-25T22:36:29.353Z,19.23
2022-08-25T22:38:57.599Z,18.97
2022-08-25T22:41:28.311Z,21.60
2022-08-25T22:43:56.742Z,17.47
2022-08-25T22:46:27.937Z,15.57
2022-08-25T22:48:57.575Z,21.83
2022-08-25T22:51:28.514Z,20.50
2022-08-25T22:53:56.581Z,17.63
2022-08-25T22:56:32.098Z,17.60
2022-08-25T22:59:00.607Z,24.77
2022-08-25T23:01:29.054Z,19.10
2022-08-25T23:03:59.411Z,19.33
2022-08-25T23:06:28.007Z,19.63
2022-08-25T23:08:56.317Z,22.30
2022-08-25T23:11:24.785Z,20.47
2022-08-25T23:13:55.296Z,21.13
2022-08-25T23:16:23.504Z,16.00
2022-08-25T23:18:52.528Z,20.53
2022-08-25T23:21:41.327Z,14.70
2022-08-25T23:24:11.086Z,22.43
2022-08-25T23:26:42.433Z,23.03
2022-08-25T23:29:18.039Z,16.80
2022-08-25T23:31:47.910Z,19.90
2022-08-25T23:34:16.246Z,19.83
2022-08-25T23:36:45.690Z,16.30
2022-08-25T23:39:14.538Z,17.50
2022-08-25T23:41:42.694Z,17.90
2022-08-25T23:44:11.921Z,17.37
2022-08-25T23:46:45.352Z,16.13
2022-08-25T23:49:18.106Z,20.23
2022-08-25T23:51:48.918Z,19.30
2022-08-25T23:54:17.283Z,19.30
2022-08-25T23:56:51.675Z,21.33
2022-08-25T23:59:24.155Z,15.77
